sensor_id;sensor_type;location;lat;lon;timestamp;P1;durP1;ratioP1;P2;durP2;ratioP2
11046;SDS011;5576;50.008;10.596;2023-11-21T00:02:20;3.78;;;1.35;;
11046;SDS011;5576;50.008;10.596;2023-11-21T00:04:46;3.63;;;1.30;;
11046;SDS011;5576;50.008;10.596;2023-11-21T00:07:13;4.40;;;1.60;;
11046;SDS011;5576;50.008;10.596;2023-11-21T00:09:39;3.15;;;1.50;;
11046;SDS011;5576;50.008;10.596;2023-11-21T00:12:06;3.38;;;1.83;;
11046;SDS011;5576;50.008;10.596;2023-11-21T00:14:36;4.40;;;1.48;;
11046;SDS011;5576;50.008;10.596;2023-11-21T00:17:03;2.13;;;1.30;;
11046;SDS011;5576;50.008;10.596;2023-11-21T00:19:30;3.83;;;1.23;;
11046;SDS011;5576;50.008;10.596;2023-11-21T00:21:56;3.57;;;1.10;;
11046;SDS011;5576;50.008;10.596;2023-11-21T00:24:23;2.40;;;1.00;;
11046;SDS011;5576;50.008;10.596;2023-11-21T00:26:50;4.05;;;1.17;;
11046;SDS011;5576;50.008;10.596;2023-11-21T00:29:17;2.40;;;1.10;;
11046;SDS011;5576;50.008;10.596;2023-11-21T00:31:43;2.55;;;0.88;;
11046;SDS011;5576;50.008;10.596;2023-11-21T00:34:11;1.95;;;1.10;;
11046;SDS011;5576;50.008;10.596;2023-11-21T00:36:37;5.60;;;1.10;;
11046;SDS011;5576;50.008;10.596;2023-11-21T00:39:03;4.27;;;1.20;;
11046;SDS011;5576;50.008;10.596;2023-11-21T00:41:31;2.45;;;0.95;;
11046;SDS011;5576;50.008;10.596;2023-11-21T00:43:57;2.72;;;1.02;;
11046;SDS011;5576;50.008;10.596;2023-11-21T00:46:24;2.85;;;1.20;;
11046;SDS011;5576;50.008;10.596;2023-11-21T00:48:52;3.25;;;1.40;;
11046;SDS011;5576;50.008;10.596;2023-11-21T00:51:19;5.07;;;2.30;;
11046;SDS011;5576;50.008;10.596;2023-11-21T00:53:45;2.55;;;1.40;;
11046;SDS011;5576;50.008;10.596;2023-11-21T00:56:12;15.80;;;9.35;;
11046;SDS011;5576;50.008;10.596;2023-11-21T00:58:38;31.98;;;18.55;;
11046;SDS011;5576;50.008;10.596;2023-11-21T01:01:07;21.92;;;11.00;;
11046;SDS011;5576;50.008;10.596;2023-11-21T01:03:33;8.90;;;5.72;;
11046;SDS011;5576;50.008;10.596;2023-11-21T01:05:59;4.13;;;2.37;;
11046;SDS011;5576;50.008;10.596;2023-11-21T01:08:24;19.67;;;11.23;;
11046;SDS011;5576;50.008;10.596;2023-11-21T01:10:50;6.03;;;2.20;;
11046;SDS011;5576;50.008;10.596;2023-11-21T01:13:16;7.25;;;3.08;;
11046;SDS011;5576;50.008;10.596;2023-11-21T01:15:42;4.70;;;1.90;;
11046;SDS011;5576;50.008;10.596;2023-11-21T01:18:08;4.68;;;1.92;;
11046;SDS011;5576;50.008;10.596;2023-11-21T01:20:34;6.07;;;1.80;;
11046;SDS011;5576;50.008;10.596;2023-11-21T01:22:59;11.98;;;7.40;;
11046;SDS011;5576;50.008;10.596;2023-11-21T01:25:26;59.13;;;34.38;;
11046;SDS011;5576;50.008;10.596;2023-11-21T01:27:52;36.15;;;20.63;;
11046;SDS011;5576;50.008;10.596;2023-11-21T01:30:18;21.67;;;12.77;;
11046;SDS011;5576;50.008;10.596;2023-11-21T01:32:43;14.25;;;9.43;;
11046;SDS011;5576;50.008;10.596;2023-11-21T01:35:09;10.90;;;6.23;;
11046;SDS011;5576;50.008;10.596;2023-11-21T01:37:35;12.57;;;6.40;;
11046;SDS011;5576;50.008;10.596;2023-11-21T01:40:03;8.75;;;4.85;;
11046;SDS011;5576;50.008;10.596;2023-11-21T01:42:33;4.47;;;2.43;;
11046;SDS011;5576;50.008;10.596;2023-11-21T01:45:00;6.20;;;3.40;;
11046;SDS011;5576;50.008;10.596;2023-11-21T01:47:30;4.55;;;2.38;;
11046;SDS011;5576;50.008;10.596;2023-11-21T01:49:57;4.10;;;2.55;;
11046;SDS011;5576;50.008;10.596;2023-11-21T01:52:23;4.55;;;2.22;;
11046;SDS011;5576;50.008;10.596;2023-11-21T01:54:50;4.63;;;1.58;;
11046;SDS011;5576;50.008;10.596;2023-11-21T01:57:16;17.20;;;12.13;;
11046;SDS011;5576;50.008;10.596;2023-11-21T01:59:42;15.73;;;12.00;;
11046;SDS011;5576;50.008;10.596;2023-11-21T02:02:09;8.70;;;5.40;;
11046;SDS011;5576;50.008;10.596;2023-11-21T02:04:36;6.27;;;4.13;;
11046;SDS011;5576;50.008;10.596;2023-11-21T02:07:03;7.05;;;5.10;;
11046;SDS011;5576;50.008;10.596;2023-11-21T02:09:30;7.90;;;4.72;;
11046;SDS011;5576;50.008;10.596;2023-11-21T02:11:59;4.35;;;2.78;;
11046;SDS011;5576;50.008;10.596;2023-11-21T02:14:26;3.40;;;2.15;;
11046;SDS011;5576;50.008;10.596;2023-11-21T02:16:53;3.53;;;1.70;;
11046;SDS011;5576;50.008;10.596;2023-11-21T02:19:21;3.28;;;1.92;;
11046;SDS011;5576;50.008;10.596;2023-11-21T02:21:50;3.20;;;1.80;;
11046;SDS011;5576;50.008;10.596;2023-11-21T02:24:19;3.97;;;1.50;;
11046;SDS011;5576;50.008;10.596;2023-11-21T02:26:45;1.20;;;1.00;;
11046;SDS011;5576;50.008;10.596;2023-11-21T02:29:11;2.47;;;1.20;;
11046;SDS011;5576;50.008;10.596;2023-11-21T02:31:39;2.10;;;1.08;;
11046;SDS011;5576;50.008;10.596;2023-11-21T02:34:13;2.03;;;1.25;;
11046;SDS011;5576;50.008;10.596;2023-11-21T02:36:42;3.58;;;1.23;;
11046;SDS011;5576;50.008;10.596;2023-11-21T02:39:08;2.75;;;1.23;;
11046;SDS011;5576;50.008;10.596;2023-11-21T02:41:36;2.58;;;1.30;;
11046;SDS011;5576;50.008;10.596;2023-11-21T02:44:03;2.83;;;1.00;;
11046;SDS011;5576;50.008;10.596;2023-11-21T02:46:31;2.17;;;1.10;;
11046;SDS011;5576;50.008;10.596;2023-11-21T02:49:02;3.75;;;1.40;;
11046;SDS011;5576;50.008;10.596;2023-11-21T02:51:29;2.25;;;1.20;;
11046;SDS011;5576;50.008;10.596;2023-11-21T02:53:55;1.80;;;1.20;;
11046;SDS011;5576;50.008;10.596;2023-11-21T02:56:26;2.80;;;1.50;;
11046;SDS011;5576;50.008;10.596;2023-11-21T02:58:54;2.55;;;1.60;;
11046;SDS011;5576;50.008;10.596;2023-11-21T03:01:20;5.20;;;1.30;;
11046;SDS011;5576;50.008;10.596;2023-11-21T03:03:46;4.05;;;1.20;;
11046;SDS011;5576;50.008;10.596;2023-11-21T03:06:12;5.50;;;1.30;;
11046;SDS011;5576;50.008;10.596;2023-11-21T03:08:38;4.70;;;1.13;;
11046;SDS011;5576;50.008;10.596;2023-11-21T03:11:04;1.33;;;1.10;;
11046;SDS011;5576;50.008;10.596;2023-11-21T03:13:30;4.30;;;1.70;;
11046;SDS011;5576;50.008;10.596;2023-11-21T03:15:57;3.33;;;1.52;;
11046;SDS011;5576;50.008;10.596;2023-11-21T03:18:23;3.25;;;1.40;;
11046;SDS011;5576;50.008;10.596;2023-11-21T03:20:48;2.07;;;1.27;;
11046;SDS011;5576;50.008;10.596;2023-11-21T03:23:14;1.10;;;1.00;;
11046;SDS011;5576;50.008;10.596;2023-11-21T03:25:40;1.93;;;1.00;;
11046;SDS011;5576;50.008;10.596;2023-11-21T03:28:06;2.85;;;1.30;;
11046;SDS011;5576;50.008;10.596;2023-11-21T03:30:35;2.90;;;1.37;;
11046;SDS011;5576;50.008;10.596;2023-11-21T03:33:00;3.88;;;1.63;;
11046;SDS011;5576;50.008;10.596;2023-11-21T03:35:26;3.80;;;1.33;;
11046;SDS011;5576;50.008;10.596;2023-11-21T03:37:53;2.58;;;1.35;;
11046;SDS011;5576;50.008;10.596;2023-11-21T03:40:18;2.93;;;1.40;;
11046;SDS011;5576;50.008;10.596;2023-11-21T03:42:46;2.13;;;1.47;;
11046;SDS011;5576;50.008;10.596;2023-11-21T03:45:12;3.30;;;1.88;;
11046;SDS011;5576;50.008;10.596;2023-11-21T03:47:40;2.88;;;1.73;;
11046;SDS011;5576;50.008;10.596;2023-11-21T03:50:07;2.78;;;1.98;;
11046;SDS011;5576;50.008;10.596;2023-11-21T03:52:35;5.75;;;2.72;;
11046;SDS011;5576;50.008;10.596;2023-11-21T03:55:01;4.65;;;2.65;;
11046;SDS011;5576;50.008;10.596;2023-11-21T03:57:28;4.85;;;2.35;;
11046;SDS011;5576;50.008;10.596;2023-11-21T03:59:54;5.20;;;2.58;;
11046;SDS011;5576;50.008;10.596;2023-11-21T04:02:19;3.67;;;2.42;;
11046;SDS011;5576;50.008;10.596;2023-11-21T04:04:45;3.30;;;2.50;;
11046;SDS011;5576;50.008;10.596;2023-11-21T04:07:11;2.92;;;2.20;;
11046;SDS011;5576;50.008;10.596;2023-11-21T04:09:38;3.55;;;2.15;;
11046;SDS011;5576;50.008;10.596;2023-11-21T04:12:05;4.10;;;3.05;;
11046;SDS011;5576;50.008;10.596;2023-11-21T04:14:31;4.85;;;2.50;;
11046;SDS011;5576;50.008;10.596;2023-11-21T04:16:56;3.65;;;2.70;;
11046;SDS011;5576;50.008;10.596;2023-11-21T04:19:22;3.80;;;2.60;;
11046;SDS011;5576;50.008;10.596;2023-11-21T04:21:48;4.80;;;4.00;;
11046;SDS011;5576;50.008;10.596;2023-11-21T04:24:14;6.17;;;4.30;;
11046;SDS011;5576;50.008;10.596;2023-11-21T04:26:40;7.28;;;4.68;;
11046;SDS011;5576;50.008;10.596;2023-11-21T04:29:05;6.53;;;4.73;;
11046;SDS011;5576;50.008;10.596;2023-11-21T04:31:31;6.65;;;4.20;;
11046;SDS011;5576;50.008;10.596;2023-11-21T04:33:57;4.57;;;3.88;;
11046;SDS011;5576;50.008;10.596;2023-11-21T04:36:22;5.18;;;3.60;;
11046;SDS011;5576;50.008;10.596;2023-11-21T04:38:48;5.37;;;3.40;;
11046;SDS011;5576;50.008;10.596;2023-11-21T04:41:14;5.73;;;3.30;;
11046;SDS011;5576;50.008;10.596;2023-11-21T04:43:39;3.70;;;2.90;;
11046;SDS011;5576;50.008;10.596;2023-11-21T04:46:05;3.40;;;3.10;;
11046;SDS011;5576;50.008;10.596;2023-11-21T04:48:32;3.40;;;3.08;;
11046;SDS011;5576;50.008;10.596;2023-11-21T04:50:58;4.18;;;2.55;;
11046;SDS011;5576;50.008;10.596;2023-11-21T04:53:23;3.70;;;2.45;;
11046;SDS011;5576;50.008;10.596;2023-11-21T04:55:49;4.40;;;2.30;;
11046;SDS011;5576;50.008;10.596;2023-11-21T04:58:15;3.55;;;2.60;;
11046;SDS011;5576;50.008;10.596;2023-11-21T05:00:41;4.83;;;2.40;;
11046;SDS011;5576;50.008;10.596;2023-11-21T05:03:06;3.13;;;2.50;;
11046;SDS011;5576;50.008;10.596;2023-11-21T05:05:32;5.38;;;2.58;;
11046;SDS011;5576;50.008;10.596;2023-11-21T05:07:59;2.85;;;2.00;;
11046;SDS011;5576;50.008;10.596;2023-11-21T05:10:26;3.50;;;2.40;;
11046;SDS011;5576;50.008;10.596;2023-11-21T05:12:52;4.30;;;2.00;;
11046;SDS011;5576;50.008;10.596;2023-11-21T05:15:17;3.75;;;2.30;;
11046;SDS011;5576;50.008;10.596;2023-11-21T05:17:44;3.07;;;2.73;;
11046;SDS011;5576;50.008;10.596;2023-11-21T05:20:11;3.75;;;2.47;;
11046;SDS011;5576;50.008;10.596;2023-11-21T05:22:38;5.43;;;3.10;;
11046;SDS011;5576;50.008;10.596;2023-11-21T05:25:05;2.55;;;2.20;;
11046;SDS011;5576;50.008;10.596;2023-11-21T05:27:33;4.20;;;1.90;;
11046;SDS011;5576;50.008;10.596;2023-11-21T05:30:01;3.67;;;2.20;;
11046;SDS011;5576;50.008;10.596;2023-11-21T05:32:30;3.27;;;1.63;;
11046;SDS011;5576;50.008;10.596;2023-11-21T05:34:56;4.18;;;1.80;;
11046;SDS011;5576;50.008;10.596;2023-11-21T05:37:22;1.90;;;1.40;;
11046;SDS011;5576;50.008;10.596;2023-11-21T05:39:50;2.03;;;1.48;;
11046;SDS011;5576;50.008;10.596;2023-11-21T05:42:16;2.67;;;1.58;;
11046;SDS011;5576;50.008;10.596;2023-11-21T05:44:42;2.33;;;1.77;;
11046;SDS011;5576;50.008;10.596;2023-11-21T05:47:09;2.08;;;1.52;;
11046;SDS011;5576;50.008;10.596;2023-11-21T05:49:35;4.97;;;1.90;;
11046;SDS011;5576;50.008;10.596;2023-11-21T05:52:02;3.03;;;1.77;;
11046;SDS011;5576;50.008;10.596;2023-11-21T05:54:27;3.75;;;1.90;;
11046;SDS011;5576;50.008;10.596;2023-11-21T05:56:53;3.50;;;1.77;;
11046;SDS011;5576;50.008;10.596;2023-11-21T05:59:19;2.55;;;1.67;;
11046;SDS011;5576;50.008;10.596;2023-11-21T06:01:45;2.35;;;1.40;;
11046;SDS011;5576;50.008;10.596;2023-11-21T06:04:11;1.25;;;1.15;;
11046;SDS011;5576;50.008;10.596;2023-11-21T06:06:38;1.80;;;1.40;;
11046;SDS011;5576;50.008;10.596;2023-11-21T06:09:04;2.08;;;1.50;;
11046;SDS011;5576;50.008;10.596;2023-11-21T06:11:31;2.40;;;1.30;;
11046;SDS011;5576;50.008;10.596;2023-11-21T06:13:57;2.42;;;1.30;;
11046;SDS011;5576;50.008;10.596;2023-11-21T06:16:23;2.83;;;1.30;;
11046;SDS011;5576;50.008;10.596;2023-11-21T06:18:49;2.35;;;1.50;;
11046;SDS011;5576;50.008;10.596;2023-11-21T06:21:15;2.60;;;1.55;;
11046;SDS011;5576;50.008;10.596;2023-11-21T06:23:42;2.10;;;1.40;;
11046;SDS011;5576;50.008;10.596;2023-11-21T06:26:07;1.57;;;1.37;;
11046;SDS011;5576;50.008;10.596;2023-11-21T06:28:34;2.10;;;1.20;;
11046;SDS011;5576;50.008;10.596;2023-11-21T06:31:01;2.08;;;1.20;;
11046;SDS011;5576;50.008;10.596;2023-11-21T06:33:31;2.88;;;1.48;;
11046;SDS011;5576;50.008;10.596;2023-11-21T06:35:57;1.55;;;1.30;;
11046;SDS011;5576;50.008;10.596;2023-11-21T06:38:23;2.42;;;1.30;;
11046;SDS011;5576;50.008;10.596;2023-11-21T06:40:49;3.80;;;2.00;;
11046;SDS011;5576;50.008;10.596;2023-11-21T06:43:15;3.63;;;2.00;;
11046;SDS011;5576;50.008;10.596;2023-11-21T06:45:40;5.03;;;3.10;;
11046;SDS011;5576;50.008;10.596;2023-11-21T06:48:06;3.97;;;3.03;;
11046;SDS011;5576;50.008;10.596;2023-11-21T06:50:32;4.18;;;2.90;;
11046;SDS011;5576;50.008;10.596;2023-11-21T06:52:57;3.27;;;2.60;;
11046;SDS011;5576;50.008;10.596;2023-11-21T06:55:23;3.00;;;2.10;;
11046;SDS011;5576;50.008;10.596;2023-11-21T06:57:49;5.67;;;3.40;;
11046;SDS011;5576;50.008;10.596;2023-11-21T07:00:15;5.40;;;2.78;;
11046;SDS011;5576;50.008;10.596;2023-11-21T07:02:44;12.27;;;11.07;;
11046;SDS011;5576;50.008;10.596;2023-11-21T07:05:09;5.90;;;5.30;;
11046;SDS011;5576;50.008;10.596;2023-11-21T07:07:36;3.77;;;3.33;;
11046;SDS011;5576;50.008;10.596;2023-11-21T07:10:02;4.50;;;2.95;;
11046;SDS011;5576;50.008;10.596;2023-11-21T07:12:29;4.55;;;2.53;;
11046;SDS011;5576;50.008;10.596;2023-11-21T07:14:56;3.50;;;2.50;;
11046;SDS011;5576;50.008;10.596;2023-11-21T07:17:22;2.47;;;2.00;;
11046;SDS011;5576;50.008;10.596;2023-11-21T07:19:49;4.38;;;2.25;;
11046;SDS011;5576;50.008;10.596;2023-11-21T07:22:15;3.05;;;2.50;;
11046;SDS011;5576;50.008;10.596;2023-11-21T07:24:48;3.10;;;2.45;;
11046;SDS011;5576;50.008;10.596;2023-11-21T07:27:17;4.47;;;2.15;;
11046;SDS011;5576;50.008;10.596;2023-11-21T07:29:43;3.15;;;2.25;;
11046;SDS011;5576;50.008;10.596;2023-11-21T07:32:09;3.53;;;2.50;;
11046;SDS011;5576;50.008;10.596;2023-11-21T07:34:35;5.90;;;4.00;;
11046;SDS011;5576;50.008;10.596;2023-11-21T07:37:01;14.27;;;7.88;;
11046;SDS011;5576;50.008;10.596;2023-11-21T07:39:27;7.80;;;4.97;;
11046;SDS011;5576;50.008;10.596;2023-11-21T07:41:53;8.27;;;4.65;;
11046;SDS011;5576;50.008;10.596;2023-11-21T07:44:20;8.63;;;4.80;;
11046;SDS011;5576;50.008;10.596;2023-11-21T07:46:46;8.70;;;5.10;;
11046;SDS011;5576;50.008;10.596;2023-11-21T07:49:12;6.68;;;4.43;;
11046;SDS011;5576;50.008;10.596;2023-11-21T07:51:43;8.43;;;5.55;;
11046;SDS011;5576;50.008;10.596;2023-11-21T07:54:09;7.93;;;5.40;;
11046;SDS011;5576;50.008;10.596;2023-11-21T07:56:35;7.43;;;5.70;;
11046;SDS011;5576;50.008;10.596;2023-11-21T07:59:01;8.23;;;5.77;;
11046;SDS011;5576;50.008;10.596;2023-11-21T08:01:26;8.27;;;6.10;;
11046;SDS011;5576;50.008;10.596;2023-11-21T08:03:53;9.05;;;6.70;;
11046;SDS011;5576;50.008;10.596;2023-11-21T08:06:22;9.80;;;7.10;;
11046;SDS011;5576;50.008;10.596;2023-11-21T08:08:49;11.20;;;6.83;;
11046;SDS011;5576;50.008;10.596;2023-11-21T08:11:15;9.52;;;6.07;;
11046;SDS011;5576;50.008;10.596;2023-11-21T08:13:41;8.32;;;5.70;;
11046;SDS011;5576;50.008;10.596;2023-11-21T08:16:07;6.85;;;4.57;;
11046;SDS011;5576;50.008;10.596;2023-11-21T08:18:33;6.23;;;4.40;;
11046;SDS011;5576;50.008;10.596;2023-11-21T08:20:59;7.93;;;4.25;;
11046;SDS011;5576;50.008;10.596;2023-11-21T08:23:25;6.88;;;4.70;;
11046;SDS011;5576;50.008;10.596;2023-11-21T08:25:51;9.80;;;5.80;;
11046;SDS011;5576;50.008;10.596;2023-11-21T08:28:18;7.15;;;5.30;;
11046;SDS011;5576;50.008;10.596;2023-11-21T08:30:44;8.18;;;4.80;;
11046;SDS011;5576;50.008;10.596;2023-11-21T08:33:10;6.30;;;4.07;;
11046;SDS011;5576;50.008;10.596;2023-11-21T08:35:37;6.78;;;4.03;;
11046;SDS011;5576;50.008;10.596;2023-11-21T08:38:03;5.85;;;3.92;;
11046;SDS011;5576;50.008;10.596;2023-11-21T08:40:29;6.07;;;4.47;;
11046;SDS011;5576;50.008;10.596;2023-11-21T08:42:55;6.18;;;3.67;;
11046;SDS011;5576;50.008;10.596;2023-11-21T08:45:21;8.03;;;4.57;;
11046;SDS011;5576;50.008;10.596;2023-11-21T08:47:47;8.30;;;4.13;;
11046;SDS011;5576;50.008;10.596;2023-11-21T08:50:13;8.40;;;4.63;;
11046;SDS011;5576;50.008;10.596;2023-11-21T08:52:40;4.40;;;3.38;;
11046;SDS011;5576;50.008;10.596;2023-11-21T08:55:06;8.63;;;4.50;;
11046;SDS011;5576;50.008;10.596;2023-11-21T08:57:35;10.45;;;5.57;;
11046;SDS011;5576;50.008;10.596;2023-11-21T09:00:02;14.52;;;8.45;;
11046;SDS011;5576;50.008;10.596;2023-11-21T09:02:30;7.53;;;4.60;;
11046;SDS011;5576;50.008;10.596;2023-11-21T09:04:56;6.50;;;3.80;;
11046;SDS011;5576;50.008;10.596;2023-11-21T09:07:24;5.88;;;3.78;;
11046;SDS011;5576;50.008;10.596;2023-11-21T09:09:50;5.00;;;3.33;;
11046;SDS011;5576;50.008;10.596;2023-11-21T09:12:16;5.43;;;3.13;;
11046;SDS011;5576;50.008;10.596;2023-11-21T09:14:42;4.43;;;2.97;;
11046;SDS011;5576;50.008;10.596;2023-11-21T09:17:10;4.80;;;3.17;;
11046;SDS011;5576;50.008;10.596;2023-11-21T09:19:37;5.85;;;2.85;;
11046;SDS011;5576;50.008;10.596;2023-11-21T09:22:03;4.22;;;2.80;;
11046;SDS011;5576;50.008;10.596;2023-11-21T09:24:30;4.82;;;3.28;;
11046;SDS011;5576;50.008;10.596;2023-11-21T09:26:57;3.83;;;2.70;;
11046;SDS011;5576;50.008;10.596;2023-11-21T09:29:23;5.90;;;3.08;;
11046;SDS011;5576;50.008;10.596;2023-11-21T09:31:49;5.53;;;2.90;;
11046;SDS011;5576;50.008;10.596;2023-11-21T09:34:16;5.20;;;2.92;;
11046;SDS011;5576;50.008;10.596;2023-11-21T09:36:45;5.53;;;3.00;;
11046;SDS011;5576;50.008;10.596;2023-11-21T09:39:11;5.43;;;3.20;;
11046;SDS011;5576;50.008;10.596;2023-11-21T09:44:09;5.10;;;2.90;;
11046;SDS011;5576;50.008;10.596;2023-11-21T09:46:40;5.35;;;3.08;;
11046;SDS011;5576;50.008;10.596;2023-11-21T09:49:08;4.63;;;2.85;;
11046;SDS011;5576;50.008;10.596;2023-11-21T09:51:39;7.10;;;4.47;;
11046;SDS011;5576;50.008;10.596;2023-11-21T09:54:08;5.22;;;4.15;;
11046;SDS011;5576;50.008;10.596;2023-11-21T09:56:36;4.85;;;3.15;;
11046;SDS011;5576;50.008;10.596;2023-11-21T09:59:03;5.28;;;3.30;;
11046;SDS011;5576;50.008;10.596;2023-11-21T10:01:32;5.23;;;3.20;;
11046;SDS011;5576;50.008;10.596;2023-11-21T10:04:00;6.05;;;3.20;;
11046;SDS011;5576;50.008;10.596;2023-11-21T10:06:26;4.90;;;3.20;;
11046;SDS011;5576;50.008;10.596;2023-11-21T10:08:54;4.55;;;2.70;;
11046;SDS011;5576;50.008;10.596;2023-11-21T10:11:22;4.03;;;3.08;;
11046;SDS011;5576;50.008;10.596;2023-11-21T10:13:52;5.00;;;3.25;;
11046;SDS011;5576;50.008;10.596;2023-11-21T10:16:19;4.97;;;3.35;;
11046;SDS011;5576;50.008;10.596;2023-11-21T10:18:48;5.90;;;4.22;;
11046;SDS011;5576;50.008;10.596;2023-11-21T10:21:18;6.07;;;4.45;;
11046;SDS011;5576;50.008;10.596;2023-11-21T10:23:44;5.90;;;4.32;;
11046;SDS011;5576;50.008;10.596;2023-11-21T10:26:10;7.10;;;4.30;;
11046;SDS011;5576;50.008;10.596;2023-11-21T10:28:57;7.13;;;4.50;;
11046;SDS011;5576;50.008;10.596;2023-11-21T10:31:25;5.32;;;3.95;;
11046;SDS011;5576;50.008;10.596;2023-11-21T10:33:52;5.03;;;4.07;;
11046;SDS011;5576;50.008;10.596;2023-11-21T10:36:26;5.90;;;4.22;;
11046;SDS011;5576;50.008;10.596;2023-11-21T10:38:52;7.15;;;4.50;;
11046;SDS011;5576;50.008;10.596;2023-11-21T10:41:19;6.00;;;4.50;;
11046;SDS011;5576;50.008;10.596;2023-11-21T10:43:46;6.60;;;4.07;;
11046;SDS011;5576;50.008;10.596;2023-11-21T10:46:13;5.82;;;3.53;;
11046;SDS011;5576;50.008;10.596;2023-11-21T10:48:40;4.50;;;3.22;;
11046;SDS011;5576;50.008;10.596;2023-11-21T10:51:07;7.03;;;4.00;;
11046;SDS011;5576;50.008;10.596;2023-11-21T10:53:38;6.63;;;3.60;;
11046;SDS011;5576;50.008;10.596;2023-11-21T10:56:06;5.53;;;3.38;;
11046;SDS011;5576;50.008;10.596;2023-11-21T10:58:35;8.40;;;3.72;;
11046;SDS011;5576;50.008;10.596;2023-11-21T11:01:04;4.55;;;3.33;;
11046;SDS011;5576;50.008;10.596;2023-11-21T11:03:32;5.20;;;3.00;;
11046;SDS011;5576;50.008;10.596;2023-11-21T11:06:01;3.38;;;2.70;;
11046;SDS011;5576;50.008;10.596;2023-11-21T11:08:29;2.80;;;2.40;;
11046;SDS011;5576;50.008;10.596;2023-11-21T11:10:56;4.70;;;3.10;;
11046;SDS011;5576;50.008;10.596;2023-11-21T11:13:23;4.28;;;3.10;;
11046;SDS011;5576;50.008;10.596;2023-11-21T11:15:49;4.43;;;2.87;;
11046;SDS011;5576;50.008;10.596;2023-11-21T11:18:15;6.70;;;2.80;;
11046;SDS011;5576;50.008;10.596;2023-11-21T11:20:42;3.60;;;2.58;;
11046;SDS011;5576;50.008;10.596;2023-11-21T11:28:29;3.30;;;2.30;;
11046;SDS011;5576;50.008;10.596;2023-11-21T11:31:04;4.43;;;2.53;;
11046;SDS011;5576;50.008;10.596;2023-11-21T11:36:17;2.65;;;2.30;;
11046;SDS011;5576;50.008;10.596;2023-11-21T11:38:46;6.63;;;3.17;;
11046;SDS011;5576;50.008;10.596;2023-11-21T11:41:19;3.95;;;2.50;;
11046;SDS011;5576;50.008;10.596;2023-11-21T11:43:51;2.80;;;2.03;;
11046;SDS011;5576;50.008;10.596;2023-11-21T11:46:18;4.00;;;2.10;;
11046;SDS011;5576;50.008;10.596;2023-11-21T11:48:46;4.05;;;2.25;;
11046;SDS011;5576;50.008;10.596;2023-11-21T11:51:14;5.30;;;3.00;;
11046;SDS011;5576;50.008;10.596;2023-11-21T11:53:42;5.20;;;2.28;;
11046;SDS011;5576;50.008;10.596;2023-11-21T11:59:00;5.85;;;3.47;;
11046;SDS011;5576;50.008;10.596;2023-11-21T12:01:27;3.20;;;2.08;;
11046;SDS011;5576;50.008;10.596;2023-11-21T12:06:40;3.88;;;1.70;;
11046;SDS011;5576;50.008;10.596;2023-11-21T12:09:07;3.80;;;2.00;;
11046;SDS011;5576;50.008;10.596;2023-11-21T12:11:48;3.00;;;1.93;;
11046;SDS011;5576;50.008;10.596;2023-11-21T12:14:15;2.60;;;1.88;;
11046;SDS011;5576;50.008;10.596;2023-11-21T12:16:41;3.25;;;2.10;;
11046;SDS011;5576;50.008;10.596;2023-11-21T12:19:08;3.00;;;1.90;;
11046;SDS011;5576;50.008;10.596;2023-11-21T12:21:36;3.55;;;1.52;;
11046;SDS011;5576;50.008;10.596;2023-11-21T12:24:02;3.38;;;1.50;;
11046;SDS011;5576;50.008;10.596;2023-11-21T12:26:28;2.42;;;1.58;;
11046;SDS011;5576;50.008;10.596;2023-11-21T12:28:54;5.03;;;1.90;;
11046;SDS011;5576;50.008;10.596;2023-11-21T12:31:21;3.08;;;1.42;;
11046;SDS011;5576;50.008;10.596;2023-11-21T12:33:47;3.37;;;1.43;;
11046;SDS011;5576;50.008;10.596;2023-11-21T12:36:13;4.07;;;1.70;;
11046;SDS011;5576;50.008;10.596;2023-11-21T12:38:40;3.70;;;2.00;;
11046;SDS011;5576;50.008;10.596;2023-11-21T12:41:07;6.32;;;2.65;;
11046;SDS011;5576;50.008;10.596;2023-11-21T12:43:36;7.88;;;3.55;;
11046;SDS011;5576;50.008;10.596;2023-11-21T12:46:05;5.75;;;2.15;;
11046;SDS011;5576;50.008;10.596;2023-11-21T12:48:32;4.72;;;2.15;;
11046;SDS011;5576;50.008;10.596;2023-11-21T12:50:58;8.27;;;2.83;;
11046;SDS011;5576;50.008;10.596;2023-11-21T12:53:25;7.90;;;3.70;;
11046;SDS011;5576;50.008;10.596;2023-11-21T12:55:51;6.22;;;3.05;;
11046;SDS011;5576;50.008;10.596;2023-11-21T12:58:17;9.60;;;4.70;;
11046;SDS011;5576;50.008;10.596;2023-11-21T13:00:46;6.90;;;3.60;;
11046;SDS011;5576;50.008;10.596;2023-11-21T13:03:13;5.33;;;2.40;;
11046;SDS011;5576;50.008;10.596;2023-11-21T13:05:43;6.72;;;2.13;;
11046;SDS011;5576;50.008;10.596;2023-11-21T13:08:11;5.80;;;2.50;;
11046;SDS011;5576;50.008;10.596;2023-11-21T13:10:40;4.57;;;2.40;;
11046;SDS011;5576;50.008;10.596;2023-11-21T13:13:10;5.18;;;2.47;;
11046;SDS011;5576;50.008;10.596;2023-11-21T13:15:46;5.63;;;2.20;;
11046;SDS011;5576;50.008;10.596;2023-11-21T13:18:13;10.73;;;4.82;;
11046;SDS011;5576;50.008;10.596;2023-11-21T13:20:39;10.70;;;5.53;;
11046;SDS011;5576;50.008;10.596;2023-11-21T13:23:07;6.37;;;2.30;;
11046;SDS011;5576;50.008;10.596;2023-11-21T13:25:34;5.05;;;3.00;;
11046;SDS011;5576;50.008;10.596;2023-11-21T13:28:00;8.85;;;4.05;;
11046;SDS011;5576;50.008;10.596;2023-11-21T13:30:26;6.18;;;2.40;;
11046;SDS011;5576;50.008;10.596;2023-11-21T13:32:59;5.20;;;2.20;;
11046;SDS011;5576;50.008;10.596;2023-11-21T13:35:31;3.92;;;2.20;;
11046;SDS011;5576;50.008;10.596;2023-11-21T13:38:04;4.22;;;2.30;;
11046;SDS011;5576;50.008;10.596;2023-11-21T13:40:31;6.53;;;2.15;;
11046;SDS011;5576;50.008;10.596;2023-11-21T13:43:00;4.50;;;2.28;;
11046;SDS011;5576;50.008;10.596;2023-11-21T13:45:29;4.43;;;2.03;;
11046;SDS011;5576;50.008;10.596;2023-11-21T13:47:56;6.07;;;2.60;;
11046;SDS011;5576;50.008;10.596;2023-11-21T13:50:25;5.10;;;2.80;;
11046;SDS011;5576;50.008;10.596;2023-11-21T13:52:53;5.03;;;2.60;;
11046;SDS011;5576;50.008;10.596;2023-11-21T13:55:19;5.80;;;3.35;;
11046;SDS011;5576;50.008;10.596;2023-11-21T13:57:47;4.10;;;2.50;;
11046;SDS011;5576;50.008;10.596;2023-11-21T14:00:24;5.47;;;2.50;;
11046;SDS011;5576;50.008;10.596;2023-11-21T14:03:10;5.80;;;2.70;;
11046;SDS011;5576;50.008;10.596;2023-11-21T14:05:44;5.72;;;2.42;;
11046;SDS011;5576;50.008;10.596;2023-11-21T14:08:12;5.88;;;2.70;;
11046;SDS011;5576;50.008;10.596;2023-11-21T14:10:41;6.05;;;2.63;;
11046;SDS011;5576;50.008;10.596;2023-11-21T14:13:09;7.38;;;2.88;;
11046;SDS011;5576;50.008;10.596;2023-11-21T14:15:36;5.25;;;2.97;;
11046;SDS011;5576;50.008;10.596;2023-11-21T14:18:07;5.50;;;3.60;;
11046;SDS011;5576;50.008;10.596;2023-11-21T14:20:36;10.05;;;4.57;;
11046;SDS011;5576;50.008;10.596;2023-11-21T14:23:03;6.07;;;3.13;;
11046;SDS011;5576;50.008;10.596;2023-11-21T14:25:32;5.55;;;3.53;;
11046;SDS011;5576;50.008;10.596;2023-11-21T14:27:59;6.88;;;3.33;;
11046;SDS011;5576;50.008;10.596;2023-11-21T14:30:24;6.17;;;3.40;;
11046;SDS011;5576;50.008;10.596;2023-11-21T14:32:51;6.32;;;3.10;;
11046;SDS011;5576;50.008;10.596;2023-11-21T14:35:16;6.50;;;2.88;;
11046;SDS011;5576;50.008;10.596;2023-11-21T14:37:43;6.43;;;3.30;;
11046;SDS011;5576;50.008;10.596;2023-11-21T14:40:09;7.07;;;3.60;;
11046;SDS011;5576;50.008;10.596;2023-11-21T14:42:36;7.97;;;4.03;;
11046;SDS011;5576;50.008;10.596;2023-11-21T14:45:04;11.50;;;4.40;;
11046;SDS011;5576;50.008;10.596;2023-11-21T14:47:32;7.68;;;4.80;;
11046;SDS011;5576;50.008;10.596;2023-11-21T14:50:00;12.68;;;5.90;;
11046;SDS011;5576;50.008;10.596;2023-11-21T14:52:44;10.32;;;5.20;;
11046;SDS011;5576;50.008;10.596;2023-11-21T14:55:20;10.57;;;5.30;;
11046;SDS011;5576;50.008;10.596;2023-11-21T14:58:06;10.02;;;4.70;;
11046;SDS011;5576;50.008;10.596;2023-11-21T15:00:37;9.68;;;4.63;;
11046;SDS011;5576;50.008;10.596;2023-11-21T15:03:09;8.68;;;4.63;;